ニアメ の空港の天気 - METARとTAF

ニアメ/ディオリ・アマニ国際空港 ( DRRN / NIM ) - ニジェール ニアメ
飛行場実況気象(Metar)
観測時間11/19 07:00 WAT (11/19 06:00 UTC)
風向・風速北西 2m/s
視程8000m
天気現象
なし
気温24℃
湿度29%
気圧1011hPa
METARDRRN 190600Z 32004KT 8000 NSC 24/05 Q1011 TEMPO 4000 DU
過去の天気等 Google飛行場航空写真 Wunderground天気予報

過去48時間のMETAR

飛行場予報(TAF)
発表時間: 11/19 06:00 WAT (11/19 05:00 UTC)
予報対象時間: 19日7時 WAT ~ 20日13時 WAT
風向・風速東北東 4m/s
視程8000m
なし
19日7時 WAT ~ 19日10時 WAT に一時的に
視程4000m
天気現象風塵
19日18時 WAT ~ 19日21時 WAT に一時的に
視程4000m
天気現象風塵
TAF DRRN 190500Z 1906/2012 06008KT 8000 NSC
TEMPO 1906/1909 4000 DU
TEMPO 1917/1920 4000 DU